Terminal Aerodrome Forecast
Issued by NWS Jackson, MS

Home | Current Version | Previous Version | Text Only | Print | Product List | Glossary On
Versions: 1 2 3 4 5 6 7 8 9 10 11 12 13 14 15 16 17 18 19 20 21
000
FTUS44 KJAN 040005 AAA
TAFGWO
TAF AMD
KGWO 040005Z 0400/0424 13006KT 4SM -RA BR BKN100 BKN120
     FM040100 18003KT P6SM -SHRA VCTS BKN040CB
     FM040300 19006KT 5SM -SHRA VCTS BKN040CB
     FM041200 21006KT P6SM BKN060
     FM041800 24007KT 6SM -SHRA VCTS OVC050CB=

USA.gov is the U.S. government's official web portal to all federal, state and local government web resources and services.